Manningtree, United Kingdom
Current Conditions -  °F | °C
As of 8:50 PM on Thursday 18 Dec 2014 (Local Time) from EGUW Reporting Station
Overcast Overcast  
Wind Chill: 54°   Ceiling: 1400
Heat Index: 54°   Visibility: 6mi
Dew Point: 50°   Wind: 18mph
Humidity: 88%   Direction: 240°WSW
Pressure: 29.77"   Gusts: 32mph
Location:  51.95°N, 1.06°E
Report Text: EGUW 182050Z 24016G28KT 9999 OVC014 12/10 Q1008 GRN NOSIG
Loading
Personal Weather Stations






























Interactive Weather Map New forecast layout! Learn more

10-Day Weather Forecast

Advertisements
Track Severe Weather on mobile